Winnipeg, Canada
Current Conditions -  °F | °C
As of 3:00 PM on Thursday 23 Oct 2014 (Local Time) from CYWG Reporting Station
Scattered Clouds Scattered Clouds  
Wind Chill: 61°   Ceiling: Unl
Heat Index: 61°   Visibility: 15mi
Dew Point: 46°   Wind: 13mph
Humidity: 59%   Direction: 220°SW
Pressure: 29.76"   Gusts: NA
Location:  49.9°N, 97.14°W
Report Text: CYWG 232000Z 22011KT 15SM SCT280 16/08 A2976 RMK CI3 SLP083 DENSITY ALT 1200FT
Loading
Personal Weather Stations






























Interactive Weather Map
Tropical Storm Tracking
New forecast layout! Learn more

10-Day Weather Forecast

Advertisements
Track Severe Weather on mobile